Time;durP1;ratioP1;P1;durP2;ratioP2;P2;SDS_P1;SDS_P2;PMS_P1;PMS_P2;Temp;Humidity;BMP_temperature;BMP_pressure;BME280_temperature;BME280_humidity;BME280_pressure;Samples;Min_cycle;Max_cycle;Signal;HPM_P1;HPM_P2
2023/04/10 00:00:18;;;;;;;10.52;4.80;;;;;;;;;;5083583;28;20163;-59
2023/04/10 00:02:44;;;;;;;5.88;4.53;;;;;;;;;;5083001;28;20120;-59
2023/04/10 00:05:10;;;;;;;6.75;4.38;;;;;;;;;;5083871;28;20494;-59
2023/04/10 00:07:36;;;;;;;7.05;4.63;;;;;;;;;;5082413;28;20051;-59
2023/04/10 00:10:02;;;;;;;6.65;4.35;;;;;;;;;;5084521;28;20109;-59
2023/04/10 00:12:28;;;;;;;5.50;4.32;;;;;;;;;;5083122;28;20098;-58
2023/04/10 00:14:54;;;;;;;7.07;4.20;;;;;;;;;;5083556;28;20041;-59
2023/04/10 00:17:20;;;;;;;6.93;4.78;;;;;;;;;;5085272;28;20084;-59
2023/04/10 00:19:46;;;;;;;7.60;4.43;;;;;;;;;;5082389;28;20051;-59
2023/04/10 00:22:13;;;;;;;5.05;4.10;;;;;;;;;;5084323;28;20044;-59
2023/04/10 00:24:39;;;;;;;8.45;5.53;;;;;;;;;;5084643;28;20052;-59
2023/04/10 00:27:05;;;;;;;6.97;4.35;;;;;;;;;;5081436;28;20577;-59
2023/04/10 00:29:31;;;;;;;5.90;3.75;;;;;;;;;;5081954;28;20300;-59
2023/04/10 00:31:57;;;;;;;6.68;4.00;;;;;;;;;;5078855;28;20113;-59
2023/04/10 00:34:23;;;;;;;7.70;4.10;;;;;;;;;;5082800;28;20086;-59
2023/04/10 00:36:49;;;;;;;9.18;5.72;;;;;;;;;;5084496;28;20090;-59
2023/04/10 00:39:15;;;;;;;7.55;4.45;;;;;;;;;;5083164;28;20816;-59
2023/04/10 00:41:42;;;;;;;6.60;4.18;;;;;;;;;;5081737;28;20044;-59
2023/04/10 00:44:08;;;;;;;7.90;5.70;;;;;;;;;;5084364;28;20062;-59
2023/04/10 00:46:36;;;;;;;6.45;4.22;;;;;;;;;;5082539;28;20451;-59
2023/04/10 00:49:02;;;;;;;6.05;4.53;;;;;;;;;;5083213;28;20102;-59
2023/04/10 00:51:28;;;;;;;7.07;4.63;;;;;;;;;;5083505;28;20039;-59
2023/04/10 00:53:54;;;;;;;6.38;4.57;;;;;;;;;;5083537;28;20045;-59
2023/04/10 00:56:20;;;;;;;6.97;4.65;;;;;;;;;;5080748;28;20063;-59
2023/04/10 00:58:47;;;;;;;7.82;4.93;;;;;;;;;;5082503;28;20040;-59
2023/04/10 01:01:13;;;;;;;8.40;4.93;;;;;;;;;;5082163;28;20111;-59
2023/04/10 01:03:40;;;;;;;8.07;5.43;;;;;;;;;;5082026;28;20044;-59
2023/04/10 01:06:11;;;;;;;8.70;6.30;;;;;;;;;;5083275;28;20622;-59
2023/04/10 01:08:44;;;;;;;6.88;4.82;;;;;;;;;;5082948;28;20143;-59
2023/04/10 01:11:09;;;;;;;;;;;;;;;;;;5081992;28;20856;-59
2023/04/10 01:13:41;;;;;;;8.27;5.53;;;;;;;;;;5082951;28;19924;-59
2023/04/10 01:16:16;;;;;;;9.05;6.07;;;;;;;;;;5066847;28;21021;-59
2023/04/10 01:19:08;;;;;;;7.90;5.38;;;;;;;;;;5067506;28;20126;-59
2023/04/10 01:21:34;;;;;;;;;;;;;;;;;;5063867;28;20140;-59
2023/04/10 01:24:10;;;;;;;9.77;5.57;;;;;;;;;;5085266;28;20391;-59
2023/04/10 01:26:56;;;;;;;8.95;5.15;;;;;;;;;;5067274;28;20139;-59
2023/04/10 01:29:26;;;;;;;7.38;5.05;;;;;;;;;;5054750;28;20110;-59
2023/04/10 01:32:01;;;;;;;8.10;5.57;;;;;;;;;;5083067;28;20827;-59
2023/04/10 01:34:32;;;;;;;8.20;5.22;;;;;;;;;;5081357;28;20052;-59
2023/04/10 01:37:10;;;;;;;8.70;5.13;;;;;;;;;;5083890;28;20033;-58
2023/04/10 01:39:39;;;;;;;8.05;5.53;;;;;;;;;;5081557;28;20094;-59
2023/04/10 01:42:06;;;;;;;7.80;5.40;;;;;;;;;;5067595;28;20048;-59
2023/04/10 01:44:32;;;;;;;6.53;4.82;;;;;;;;;;5081660;28;20044;-59
2023/04/10 01:47:00;;;;;;;8.27;5.25;;;;;;;;;;5081048;28;20126;-59
2023/04/10 01:49:28;;;;;;;9.13;5.00;;;;;;;;;;5080681;28;20444;-59
2023/04/10 01:51:57;;;;;;;7.00;4.75;;;;;;;;;;5082519;28;20036;-59
2023/04/10 01:54:25;;;;;;;7.65;5.20;;;;;;;;;;5082728;27;20102;-58
2023/04/10 01:56:51;;;;;;;8.02;5.05;;;;;;;;;;5081211;28;20540;-59
2023/04/10 01:59:18;;;;;;;7.25;5.53;;;;;;;;;;5082062;28;20103;-59
2023/04/10 02:01:44;;;;;;;8.93;5.85;;;;;;;;;;5080409;28;20052;-59
2023/04/10 02:04:10;;;;;;;8.38;5.28;;;;;;;;;;5082652;28;20127;-59
2023/04/10 02:06:42;;;;;;;8.23;4.90;;;;;;;;;;5083507;28;20067;-59
2023/04/10 02:09:11;;;;;;;7.57;5.47;;;;;;;;;;5080472;28;20670;-59
2023/04/10 02:11:47;;;;;;;8.20;5.53;;;;;;;;;;5083697;28;20040;-59
2023/04/10 02:14:16;;;;;;;8.63;4.80;;;;;;;;;;5083405;28;20574;-58
2023/04/10 02:16:43;;;;;;;9.23;5.63;;;;;;;;;;5084471;28;20069;-59
2023/04/10 02:19:10;;;;;;;7.75;5.38;;;;;;;;;;5083702;28;20044;-59
2023/04/10 02:21:38;;;;;;;7.97;5.60;;;;;;;;;;5081313;28;20047;-59
2023/04/10 02:24:05;;;;;;;8.32;6.05;;;;;;;;;;5082761;27;20086;-59
2023/04/10 02:26:43;;;;;;;7.35;5.07;;;;;;;;;;5064473;28;20575;-59
2023/04/10 02:29:09;;;;;;;9.30;5.43;;;;;;;;;;5081483;28;20071;-59
2023/04/10 02:31:35;;;;;;;8.40;5.45;;;;;;;;;;5081842;27;20045;-59
2023/04/10 02:34:01;;;;;;;6.65;5.00;;;;;;;;;;5081346;28;20788;-60
2023/04/10 02:36:27;;;;;;;7.07;4.57;;;;;;;;;;5080081;28;20205;-59
2023/04/10 02:38:53;;;;;;;7.85;5.63;;;;;;;;;;5082370;28;20124;-59
2023/04/10 02:41:19;;;;;;;8.38;5.82;;;;;;;;;;5079739;28;20051;-59
2023/04/10 02:43:45;;;;;;;7.57;5.05;;;;;;;;;;5079350;28;20439;-59
2023/04/10 02:46:11;;;;;;;8.30;4.95;;;;;;;;;;5080714;28;20131;-59
2023/04/10 02:48:37;;;;;;;8.07;5.95;;;;;;;;;;5061315;28;20109;-59
2023/04/10 02:51:04;;;;;;;10.50;6.18;;;;;;;;;;5078999;28;20553;-59
2023/04/10 02:53:30;;;;;;;9.15;5.70;;;;;;;;;;5077328;28;20044;-59
2023/04/10 02:55:56;;;;;;;8.70;6.03;;;;;;;;;;5080391;28;20480;-59
2023/04/10 02:58:22;;;;;;;8.30;5.05;;;;;;;;;;5078995;28;20052;-59
2023/04/10 03:00:50;;;;;;;8.63;5.72;;;;;;;;;;5075883;28;20047;-59
2023/04/10 03:03:16;;;;;;;8.35;5.50;;;;;;;;;;5078659;28;20059;-59
2023/04/10 03:05:42;;;;;;;8.35;5.95;;;;;;;;;;5078997;28;20041;-59
2023/04/10 03:08:08;;;;;;;7.78;5.70;;;;;;;;;;5082583;28;20052;-59
2023/04/10 03:10:35;;;;;;;8.20;4.95;;;;;;;;;;5078099;28;20467;-59
2023/04/10 03:13:01;;;;;;;10.20;6.15;;;;;;;;;;5065220;28;20366;-59
2023/04/10 03:15:27;;;;;;;7.45;4.80;;;;;;;;;;5078841;28;20045;-59
2023/04/10 03:17:53;;;;;;;7.47;5.53;;;;;;;;;;5075922;28;20052;-59
2023/04/10 03:20:19;;;;;;;9.95;5.82;;;;;;;;;;5079967;28;20637;-59
2023/04/10 03:22:45;;;;;;;9.52;6.72;;;;;;;;;;5081922;27;20044;-59
2023/04/10 03:25:11;;;;;;;8.02;5.32;;;;;;;;;;5078210;28;20205;-59
2023/04/10 03:27:38;;;;;;;8.52;5.32;;;;;;;;;;5078648;28;20064;-59
2023/04/10 03:30:04;;;;;;;8.05;5.57;;;;;;;;;;5080321;28;20701;-59
2023/04/10 03:32:30;;;;;;;9.95;6.35;;;;;;;;;;5081176;28;20447;-59
2023/04/10 03:34:59;;;;;;;8.82;5.43;;;;;;;;;;5079641;27;20080;-60
2023/04/10 03:37:26;;;;;;;8.93;6.03;;;;;;;;;;5080838;28;20664;-60
2023/04/10 03:39:52;;;;;;;9.77;5.95;;;;;;;;;;5084818;28;20032;-60
2023/04/10 03:42:19;;;;;;;9.00;5.53;;;;;;;;;;5081894;27;20071;-59
2023/04/10 03:44:45;;;;;;;8.55;5.03;;;;;;;;;;5085176;28;20491;-60
2023/04/10 03:47:11;;;;;;;8.23;5.75;;;;;;;;;;5082006;28;20075;-60
2023/04/10 03:49:37;;;;;;;10.98;5.32;;;;;;;;;;5081689;28;20520;-59
2023/04/10 03:52:03;;;;;;;7.32;5.15;;;;;;;;;;5083051;28;20044;-59
2023/04/10 03:54:29;;;;;;;9.05;5.10;;;;;;;;;;5082128;28;20163;-60
2023/04/10 03:56:56;;;;;;;9.25;5.97;;;;;;;;;;5082700;28;20050;-60
2023/04/10 03:59:22;;;;;;;6.63;4.78;;;;;;;;;;5083181;27;20179;-60
2023/04/10 04:01:48;;;;;;;11.27;5.80;;;;;;;;;;5084691;28;20095;-59
2023/04/10 04:04:14;;;;;;;8.45;5.95;;;;;;;;;;5082525;28;20102;-60
2023/04/10 04:06:40;;;;;;;9.05;6.63;;;;;;;;;;5080260;28;20040;-60
2023/04/10 04:09:06;;;;;;;6.75;5.03;;;;;;;;;;5081891;28;20186;-60
2023/04/10 04:11:32;;;;;;;7.47;4.95;;;;;;;;;;5083122;28;20045;-60
2023/04/10 04:13:58;;;;;;;6.78;4.68;;;;;;;;;;5082957;28;20055;-59
2023/04/10 04:16:24;;;;;;;9.65;6.13;;;;;;;;;;5083533;28;20044;-59
2023/04/10 04:18:51;;;;;;;7.63;5.13;;;;;;;;;;5083279;28;20522;-60
2023/04/10 04:21:17;;;;;;;8.05;5.18;;;;;;;;;;5081747;28;20112;-60
2023/04/10 04:23:43;;;;;;;7.82;5.45;;;;;;;;;;5080347;28;20047;-60
2023/04/10 04:26:09;;;;;;;6.30;4.38;;;;;;;;;;5077171;28;20593;-60
2023/04/10 04:28:35;;;;;;;7.65;5.28;;;;;;;;;;5079705;28;20066;-60
2023/04/10 04:31:01;;;;;;;8.25;5.30;;;;;;;;;;5080118;28;20032;-60
2023/04/10 04:33:27;;;;;;;8.00;5.68;;;;;;;;;;5075911;28;20041;-60
2023/04/10 04:35:53;;;;;;;8.15;5.05;;;;;;;;;;5075824;28;20123;-59
2023/04/10 04:38:19;;;;;;;8.65;5.20;;;;;;;;;;5080995;28;20040;-59
2023/04/10 04:40:46;;;;;;;7.45;5.13;;;;;;;;;;5084056;28;20127;-59
2023/04/10 04:43:12;;;;;;;6.90;5.00;;;;;;;;;;5084147;28;20106;-59
2023/04/10 04:45:38;;;;;;;9.55;5.40;;;;;;;;;;5082215;28;20045;-59
2023/04/10 04:48:04;;;;;;;8.35;5.38;;;;;;;;;;5081535;28;20091;-59
2023/04/10 04:50:30;;;;;;;7.53;4.82;;;;;;;;;;5078462;28;20117;-59
2023/04/10 04:52:56;;;;;;;7.53;4.18;;;;;;;;;;5085188;28;20090;-59
2023/04/10 04:55:22;;;;;;;6.80;4.72;;;;;;;;;;5084428;28;20053;-59
2023/04/10 04:57:48;;;;;;;4.88;4.10;;;;;;;;;;5085654;28;20036;-59
2023/04/10 05:00:14;;;;;;;6.47;4.28;;;;;;;;;;5082224;28;20186;-59
2023/04/10 05:02:40;;;;;;;5.55;4.20;;;;;;;;;;5078094;28;20036;-59
2023/04/10 05:05:06;;;;;;;7.53;4.30;;;;;;;;;;5079647;28;20525;-59
2023/04/10 05:07:32;;;;;;;7.32;5.18;;;;;;;;;;5083395;28;20079;-59
2023/04/10 05:09:59;;;;;;;5.18;4.03;;;;;;;;;;5065499;28;20086;-59
2023/04/10 05:12:25;;;;;;;6.20;4.03;;;;;;;;;;5081366;27;20076;-59
2023/04/10 05:14:51;;;;;;;6.97;4.55;;;;;;;;;;5079459;28;20150;-59
2023/04/10 05:17:17;;;;;;;6.95;4.35;;;;;;;;;;5080544;28;20167;-59
2023/04/10 05:19:43;;;;;;;7.97;5.20;;;;;;;;;;5078613;28;20581;-59
2023/04/10 05:22:09;;;;;;;7.25;4.85;;;;;;;;;;5083109;28;20098;-59
2023/04/10 05:24:35;;;;;;;7.88;4.93;;;;;;;;;;5078175;28;20047;-59
2023/04/10 05:27:01;;;;;;;7.22;4.00;;;;;;;;;;5078830;28;20509;-59
2023/04/10 05:29:28;;;;;;;6.50;4.40;;;;;;;;;;5083072;28;20090;-59
2023/04/10 05:31:54;;;;;;;5.25;3.83;;;;;;;;;;5078521;28;20090;-59
2023/04/10 05:34:20;;;;;;;7.00;4.75;;;;;;;;;;5084160;28;20046;-59
2023/04/10 05:36:46;;;;;;;5.32;4.47;;;;;;;;;;5067378;28;20132;-59
2023/04/10 05:39:12;;;;;;;5.10;3.83;;;;;;;;;;5080524;28;20123;-59
2023/04/10 05:41:38;;;;;;;7.28;4.75;;;;;;;;;;5081534;28;20427;-59
2023/04/10 05:44:04;;;;;;;6.05;3.80;;;;;;;;;;5082553;28;20664;-59
2023/04/10 05:46:30;;;;;;;7.07;5.15;;;;;;;;;;5081982;28;20045;-59
2023/04/10 05:48:57;;;;;;;5.55;3.67;;;;;;;;;;5082404;28;20048;-60
2023/04/10 05:51:23;;;;;;;6.38;4.82;;;;;;;;;;5081559;28;20123;-59
2023/04/10 05:53:50;;;;;;;6.32;4.05;;;;;;;;;;5082135;28;20132;-59
2023/04/10 05:56:16;;;;;;;5.97;3.75;;;;;;;;;;5078638;28;20071;-59
2023/04/10 05:58:42;;;;;;;6.93;3.72;;;;;;;;;;5080531;28;20226;-59
2023/04/10 06:01:08;;;;;;;6.97;4.15;;;;;;;;;;5077019;28;20048;-59
2023/04/10 06:03:34;;;;;;;6.60;4.45;;;;;;;;;;5077730;28;20844;-59
2023/04/10 06:06:01;;;;;;;7.78;4.13;;;;;;;;;;5078550;28;20530;-59
2023/04/10 06:08:27;;;;;;;5.28;3.65;;;;;;;;;;5081224;27;20755;-59
2023/04/10 06:10:54;;;;;;;5.88;4.43;;;;;;;;;;5062915;28;21026;-59
2023/04/10 06:13:20;;;;;;;6.25;3.92;;;;;;;;;;5079298;27;22162;-59
2023/04/10 06:15:46;;;;;;;5.28;3.67;;;;;;;;;;5082505;27;20040;-59
2023/04/10 06:18:15;;;;;;;5.30;4.10;;;;;;;;;;5082689;28;20055;-59
2023/04/10 06:20:41;;;;;;;9.13;4.80;;;;;;;;;;5081889;28;20052;-59
2023/04/10 06:23:07;;;;;;;7.82;3.92;;;;;;;;;;5078585;28;20085;-59
2023/04/10 06:25:33;;;;;;;5.88;3.90;;;;;;;;;;5079884;28;20536;-59
2023/04/10 06:27:59;;;;;;;5.30;3.30;;;;;;;;;;5082815;28;20957;-59
2023/04/10 06:30:26;;;;;;;7.60;5.05;;;;;;;;;;5079205;28;20058;-59
2023/04/10 06:32:52;;;;;;;5.88;3.72;;;;;;;;;;5079790;28;20048;-59
2023/04/10 06:35:18;;;;;;;5.40;3.72;;;;;;;;;;5080204;28;20805;-59
2023/04/10 06:37:44;;;;;;;5.25;3.90;;;;;;;;;;5076312;28;20044;-59
2023/04/10 06:40:11;;;;;;;9.68;3.88;;;;;;;;;;5077577;28;20130;-59
2023/04/10 06:42:37;;;;;;;5.63;3.63;;;;;;;;;;5075396;28;20080;-59
2023/04/10 06:45:03;;;;;;;4.70;3.50;;;;;;;;;;5082140;28;20040;-59
2023/04/10 06:47:30;;;;;;;5.57;3.83;;;;;;;;;;5079199;28;20524;-59
2023/04/10 06:49:57;;;;;;;6.85;4.22;;;;;;;;;;5079464;28;20443;-59
2023/04/10 06:52:23;;;;;;;6.07;4.25;;;;;;;;;;5076526;28;20494;-59
2023/04/10 06:54:49;;;;;;;6.90;3.70;;;;;;;;;;5081007;28;20044;-59
2023/04/10 06:57:15;;;;;;;4.97;3.58;;;;;;;;;;5080071;28;20044;-59
2023/04/10 06:59:42;;;;;;;5.50;4.15;;;;;;;;;;5082899;27;20052;-60
2023/04/10 07:02:08;;;;;;;4.50;3.13;;;;;;;;;;5077356;28;20778;-60
2023/04/10 07:04:34;;;;;;;7.40;3.97;;;;;;;;;;5083249;28;20052;-59
2023/04/10 07:07:00;;;;;;;5.28;3.85;;;;;;;;;;5082094;28;20036;-59
2023/04/10 07:09:26;;;;;;;6.18;3.78;;;;;;;;;;5079385;28;20056;-59
2023/04/10 07:11:53;;;;;;;10.18;4.57;;;;;;;;;;5084965;28;20556;-59
2023/04/10 07:14:19;;;;;;;7.30;4.45;;;;;;;;;;5084648;28;20044;-59
2023/04/10 07:16:45;;;;;;;6.78;4.32;;;;;;;;;;5083981;28;20421;-59
2023/04/10 07:19:11;;;;;;;5.90;3.90;;;;;;;;;;5084575;28;20138;-59
2023/04/10 07:21:37;;;;;;;6.05;4.10;;;;;;;;;;5068255;28;20076;-59
2023/04/10 07:24:03;;;;;;;5.40;3.47;;;;;;;;;;5080921;28;20032;-59
2023/04/10 07:26:29;;;;;;;9.65;4.68;;;;;;;;;;5080178;28;20087;-59
2023/04/10 07:28:55;;;;;;;5.70;4.13;;;;;;;;;;5084141;28;20040;-59
2023/04/10 07:31:21;;;;;;;7.05;4.30;;;;;;;;;;5077748;28;20055;-59
2023/04/10 07:33:47;;;;;;;9.77;4.30;;;;;;;;;;5081807;28;20041;-59
2023/04/10 07:36:14;;;;;;;6.25;4.18;;;;;;;;;;5084516;28;20543;-59
2023/04/10 07:38:40;;;;;;;6.43;3.60;;;;;;;;;;5082714;28;20041;-60
2023/04/10 07:41:06;;;;;;;5.65;3.97;;;;;;;;;;5086029;27;20553;-59
2023/04/10 07:43:32;;;;;;;6.13;4.13;;;;;;;;;;5085699;28;20045;-59
2023/04/10 07:45:58;;;;;;;9.27;4.85;;;;;;;;;;5085163;28;20847;-59
2023/04/10 07:48:24;;;;;;;6.50;4.30;;;;;;;;;;5084542;28;20048;-59
2023/04/10 07:50:50;;;;;;;7.45;4.82;;;;;;;;;;5082658;28;20036;-59
2023/04/10 07:53:16;;;;;;;6.18;4.10;;;;;;;;;;5080762;28;20047;-60
2023/04/10 07:55:44;;;;;;;5.18;3.92;;;;;;;;;;5084062;28;20075;-59
2023/04/10 07:58:10;;;;;;;6.40;4.40;;;;;;;;;;5085801;28;20025;-60
2023/04/10 08:00:37;;;;;;;6.05;4.18;;;;;;;;;;5084442;28;20076;-59
2023/04/10 08:03:06;;;;;;;6.60;4.60;;;;;;;;;;5084791;28;20044;-60
2023/04/10 08:05:32;;;;;;;6.65;4.15;;;;;;;;;;5086983;28;20040;-60
2023/04/10 08:07:59;;;;;;;7.25;4.53;;;;;;;;;;5085165;28;20532;-60
2023/04/10 08:10:25;;;;;;;6.88;4.53;;;;;;;;;;5082577;28;20062;-60
2023/04/10 08:12:51;;;;;;;9.02;4.50;;;;;;;;;;5075903;28;20123;-60
2023/04/10 08:15:17;;;;;;;5.57;3.75;;;;;;;;;;5076624;28;20047;-60
2023/04/10 08:17:43;;;;;;;9.32;4.22;;;;;;;;;;5080234;28;20032;-60
2023/04/10 08:20:11;;;;;;;6.78;3.67;;;;;;;;;;5082465;28;20635;-60
2023/04/10 08:22:37;;;;;;;5.03;4.43;;;;;;;;;;5083384;28;20041;-60
2023/04/10 08:25:04;;;;;;;6.20;3.85;;;;;;;;;;5079721;28;20047;-60
2023/04/10 08:27:30;;;;;;;6.95;4.25;;;;;;;;;;5080527;28;20415;-60
2023/04/10 08:29:56;;;;;;;7.03;4.20;;;;;;;;;;5078910;28;20086;-60
2023/04/10 08:32:25;;;;;;;7.07;4.90;;;;;;;;;;5081647;28;20040;-60
2023/04/10 08:34:51;;;;;;;5.15;3.88;;;;;;;;;;5075576;28;20043;-60
2023/04/10 08:37:18;;;;;;;5.22;4.20;;;;;;;;;;5076446;28;20471;-60
2023/04/10 08:39:44;;;;;;;7.78;4.30;;;;;;;;;;5077727;27;20524;-60
2023/04/10 08:42:11;;;;;;;5.38;3.88;;;;;;;;;;5076435;28;21361;-60
2023/04/10 08:44:38;;;;;;;6.45;3.80;;;;;;;;;;5079078;28;20976;-60
2023/04/10 08:47:05;;;;;;;5.22;3.53;;;;;;;;;;5079969;28;20044;-60
2023/04/10 08:49:34;;;;;;;6.85;4.45;;;;;;;;;;5077683;28;20048;-60
2023/04/10 08:52:01;;;;;;;6.75;3.67;;;;;;;;;;5081770;28;20044;-60
2023/04/10 08:54:28;;;;;;;6.28;4.28;;;;;;;;;;5075042;28;20107;-60
2023/04/10 08:56:55;;;;;;;6.20;4.70;;;;;;;;;;5072639;28;20641;-60
2023/04/10 08:59:21;;;;;;;5.38;3.65;;;;;;;;;;5070782;28;20095;-60
2023/04/10 09:01:48;;;;;;;7.28;4.57;;;;;;;;;;5074712;28;20412;-60
2023/04/10 09:04:15;;;;;;;6.22;4.90;;;;;;;;;;5078263;28;20094;-60
2023/04/10 09:06:41;;;;;;;6.25;3.53;;;;;;;;;;5076561;28;20040;-60
2023/04/10 09:09:08;;;;;;;5.13;3.85;;;;;;;;;;5075360;28;20520;-60
2023/04/10 09:12:00;;;;;;;5.82;4.25;;;;;;;;;;5077043;28;20611;-60
2023/04/10 09:14:35;;;;;;;6.57;4.45;;;;;;;;;;5069654;27;20710;-60
2023/04/10 09:17:21;;;;;;;6.95;4.03;;;;;;;;;;5076021;28;20051;-60
2023/04/10 09:19:51;;;;;;;5.10;3.53;;;;;;;;;;5078088;28;20067;-60
2023/04/10 09:22:18;;;;;;;6.88;4.75;;;;;;;;;;5075718;28;20041;-60
2023/04/10 09:24:45;;;;;;;5.15;3.47;;;;;;;;;;5074251;28;20041;-60
2023/04/10 09:27:26;;;;;;;4.38;3.53;;;;;;;;;;5070804;28;20063;-60
2023/04/10 09:29:52;;;;;;;5.07;3.20;;;;;;;;;;5059734;28;20057;-60
2023/04/10 09:32:35;;;;;;;8.27;4.20;;;;;;;;;;5058812;28;20733;-60
2023/04/10 09:35:03;;;;;;;5.80;3.85;;;;;;;;;;5075929;28;20543;-60
2023/04/10 09:37:33;;;;;;;6.78;4.55;;;;;;;;;;5077425;28;20633;-60
2023/04/10 09:39:59;;;;;;;5.68;3.92;;;;;;;;;;5058884;28;20049;-60
2023/04/10 09:42:32;;;;;;;4.05;3.30;;;;;;;;;;5076011;28;20661;-60
2023/04/10 09:44:58;;;;;;;9.98;3.90;;;;;;;;;;5075504;28;20143;-60
2023/04/10 09:47:24;;;;;;;5.20;4.15;;;;;;;;;;5076642;27;20727;-60
2023/04/10 09:49:52;;;;;;;6.18;3.65;;;;;;;;;;5077817;28;20040;-60
2023/04/10 09:52:19;;;;;;;5.32;3.60;;;;;;;;;;5077251;28;20091;-60
2023/04/10 09:54:45;;;;;;;5.55;3.90;;;;;;;;;;5078362;28;20519;-60
2023/04/10 09:57:14;;;;;;;4.95;3.45;;;;;;;;;;5074564;28;20083;-60
2023/04/10 09:59:40;;;;;;;4.88;3.28;;;;;;;;;;5074831;28;20068;-60
2023/04/10 10:02:06;;;;;;;4.50;3.00;;;;;;;;;;5060947;28;20045;-60
2023/04/10 10:04:33;;;;;;;5.72;4.28;;;;;;;;;;5076233;28;20045;-60
2023/04/10 10:06:59;;;;;;;5.32;3.58;;;;;;;;;;5079659;28;20055;-60
2023/04/10 10:09:27;;;;;;;6.05;3.38;;;;;;;;;;5078394;28;20207;-60
2023/04/10 10:11:54;;;;;;;6.07;3.75;;;;;;;;;;5073938;28;20034;-60
2023/04/10 10:14:22;;;;;;;4.97;3.10;;;;;;;;;;5066839;28;20060;-60
2023/04/10 10:16:50;;;;;;;4.93;3.20;;;;;;;;;;5076922;28;20044;-60
2023/04/10 10:19:19;;;;;;;4.63;3.40;;;;;;;;;;5081961;28;20162;-60
2023/04/10 10:21:46;;;;;;;4.85;3.78;;;;;;;;;;5078767;28;20063;-60
2023/04/10 10:24:13;;;;;;;5.68;3.38;;;;;;;;;;5081982;28;20044;-60
2023/04/10 10:26:39;;;;;;;5.93;3.22;;;;;;;;;;5082757;28;20040;-60
2023/04/10 10:29:09;;;;;;;5.82;4.00;;;;;;;;;;5079807;28;20736;-60
2023/04/10 10:31:36;;;;;;;5.10;3.30;;;;;;;;;;5077754;28;20096;-60
2023/04/10 10:34:04;;;;;;;4.25;3.25;;;;;;;;;;5081909;27;21269;-60
2023/04/10 10:36:33;;;;;;;5.78;2.97;;;;;;;;;;5076700;28;20036;-61
2023/04/10 10:39:18;;;;;;;4.13;2.60;;;;;;;;;;5079692;28;20047;-60
2023/04/10 10:41:53;;;;;;;4.65;3.13;;;;;;;;;;5078238;28;20045;-60
2023/04/10 10:44:26;;;;;;;6.40;3.38;;;;;;;;;;5079265;27;20129;-60
2023/04/10 10:47:12;;;;;;;4.00;3.20;;;;;;;;;;5081832;28;20040;-60
2023/04/10 10:49:55;;;;;;;3.33;2.95;;;;;;;;;;5068618;28;20040;-60
2023/04/10 10:52:56;;;;;;;4.97;3.40;;;;;;;;;;5082754;27;20060;-61
2023/04/10 10:55:26;;;;;;;5.18;3.15;;;;;;;;;;5070549;28;20051;-60
2023/04/10 10:57:53;;;;;;;5.20;3.35;;;;;;;;;;5078676;28;20525;-60
2023/04/10 11:00:20;;;;;;;3.90;2.75;;;;;;;;;;5083302;28;20056;-60
2023/04/10 11:03:06;;;;;;;5.63;2.80;;;;;;;;;;5084944;28;20040;-60
2023/04/10 11:05:51;;;;;;;4.93;3.30;;;;;;;;;;5080062;28;20035;-60
2023/04/10 11:08:17;;;;;;;5.47;3.13;;;;;;;;;;5081086;28;20032;-61
2023/04/10 11:11:04;;;;;;;5.65;3.63;;;;;;;;;;5079247;28;20136;-61
2023/04/10 11:13:30;;;;;;;4.50;3.03;;;;;;;;;;5083799;28;20066;-61
2023/04/10 11:18:46;;;;;;;4.95;3.10;;;;;;;;;;5088230;28;20129;-61
2023/04/10 11:21:22;;;;;;;3.13;2.40;;;;;;;;;;5080384;28;20067;-59
2023/04/10 11:23:51;;;;;;;4.72;2.50;;;;;;;;;;5081974;28;20175;-61
2023/04/10 11:26:39;;;;;;;4.43;2.13;;;;;;;;;;5080857;28;20062;-61
2023/04/10 11:29:06;;;;;;;2.88;1.63;;;;;;;;;;5078587;28;20049;-61
2023/04/10 11:31:32;;;;;;;5.80;3.15;;;;;;;;;;5078715;28;20124;-60
2023/04/10 11:34:03;;;;;;;4.10;2.35;;;;;;;;;;5081722;28;21181;-61
2023/04/10 11:36:30;;;;;;;3.15;2.58;;;;;;;;;;5080427;28;20693;-61
2023/04/10 11:39:01;;;;;;;8.27;2.90;;;;;;;;;;5080637;27;20161;-60
2023/04/10 11:41:31;;;;;;;3.88;2.20;;;;;;;;;;5079285;28;20604;-60
2023/04/10 11:43:58;;;;;;;6.72;3.63;;;;;;;;;;5066759;28;20676;-61
2023/04/10 11:46:24;;;;;;;5.55;3.00;;;;;;;;;;5067748;28;20407;-61
2023/04/10 11:48:55;;;;;;;3.58;1.98;;;;;;;;;;5083575;27;20438;-60
2023/04/10 11:51:21;;;;;;;5.22;2.50;;;;;;;;;;5082258;28;20116;-60
2023/04/10 11:53:47;;;;;;;6.20;3.20;;;;;;;;;;5080918;28;20049;-60
2023/04/10 11:56:20;;;;;;;7.20;2.30;;;;;;;;;;5080213;28;20040;-60
2023/04/10 11:58:52;;;;;;;4.78;2.45;;;;;;;;;;5083273;28;20045;-60
2023/04/10 12:01:20;;;;;;;4.82;2.40;;;;;;;;;;5083791;28;20048;-60
2023/04/10 12:03:46;;;;;;;4.35;3.10;;;;;;;;;;5074073;28;20040;-60
2023/04/10 12:06:13;;;;;;;6.07;2.65;;;;;;;;;;5081713;28;20040;-60
2023/04/10 12:08:41;;;;;;;3.00;1.92;;;;;;;;;;5078637;28;20148;-60
2023/04/10 12:11:08;;;;;;;4.30;2.45;;;;;;;;;;5080255;28;20215;-61
2023/04/10 12:13:35;;;;;;;4.90;2.63;;;;;;;;;;5082670;28;20051;-61
2023/04/10 12:16:06;;;;;;;5.72;2.55;;;;;;;;;;5083351;27;20528;-61
2023/04/10 12:18:32;;;;;;;4.43;2.30;;;;;;;;;;5081291;28;20514;-61
2023/04/10 12:20:58;;;;;;;4.82;2.40;;;;;;;;;;5083218;28;20417;-61
2023/04/10 12:23:26;;;;;;;4.15;2.63;;;;;;;;;;5082683;28;20050;-61
2023/04/10 12:25:52;;;;;;;6.95;2.80;;;;;;;;;;5081960;28;20048;-61
2023/04/10 12:28:19;;;;;;;6.28;2.63;;;;;;;;;;5080819;28;20069;-61
2023/04/10 12:30:49;;;;;;;3.47;2.35;;;;;;;;;;5082325;28;20854;-60
2023/04/10 12:33:20;;;;;;;2.92;2.03;;;;;;;;;;5081079;28;20086;-61
2023/04/10 12:35:46;;;;;;;4.50;2.63;;;;;;;;;;5085483;28;20045;-61
2023/04/10 12:38:12;;;;;;;4.68;2.50;;;;;;;;;;5083816;28;20044;-61
2023/04/10 12:40:40;;;;;;;5.18;2.53;;;;;;;;;;5081084;28;20517;-61
2023/04/10 12:43:06;;;;;;;4.00;2.53;;;;;;;;;;5084215;27;20048;-61
2023/04/10 12:45:42;;;;;;;4.28;2.50;;;;;;;;;;5085324;28;20071;-61
2023/04/10 12:48:08;;;;;;;5.07;2.65;;;;;;;;;;5084231;28;20126;-61
2023/04/10 12:50:46;;;;;;;6.65;3.72;;;;;;;;;;5067226;28;20089;-61
2023/04/10 12:53:12;;;;;;;7.60;4.10;;;;;;;;;;5084931;27;21309;-61
2023/04/10 12:55:39;;;;;;;15.60;9.73;;;;;;;;;;5082375;28;20499;-60
2023/04/10 12:58:21;;;;;;;4.57;3.15;;;;;;;;;;5081150;28;20041;-60
2023/04/10 13:00:47;;;;;;;3.03;1.95;;;;;;;;;;5080147;28;20071;-60
2023/04/10 13:03:13;;;;;;;3.28;1.70;;;;;;;;;;5082295;28;20047;-61
2023/04/10 13:05:39;;;;;;;4.20;1.40;;;;;;;;;;5081222;28;20545;-60
2023/04/10 13:08:05;;;;;;;1.88;1.15;;;;;;;;;;5081979;28;20048;-61
2023/04/10 13:10:32;;;;;;;3.80;1.60;;;;;;;;;;5081584;28;20057;-60
2023/04/10 13:12:58;;;;;;;2.35;1.80;;;;;;;;;;5083676;28;20090;-60
2023/04/10 13:15:24;;;;;;;2.75;1.58;;;;;;;;;;5083941;28;20047;-61
2023/04/10 13:17:50;;;;;;;2.03;1.30;;;;;;;;;;5082153;27;20044;-61
2023/04/10 13:20:16;;;;;;;2.42;1.38;;;;;;;;;;5082219;28;20044;-60
2023/04/10 13:22:43;;;;;;;5.93;1.75;;;;;;;;;;5084285;28;20044;-61
2023/04/10 13:25:09;;;;;;;5.20;1.88;;;;;;;;;;5082864;28;20032;-60
2023/04/10 13:27:35;;;;;;;3.30;2.30;;;;;;;;;;5083008;28;20051;-60
2023/04/10 13:30:01;;;;;;;3.80;1.75;;;;;;;;;;5084953;28;21077;-60
2023/04/10 13:32:27;;;;;;;2.78;1.48;;;;;;;;;;5084297;28;20107;-61
2023/04/10 13:34:54;;;;;;;2.85;2.20;;;;;;;;;;5083927;28;20036;-61
2023/04/10 13:37:20;;;;;;;5.50;1.77;;;;;;;;;;5084212;28;20041;-61
2023/04/10 13:39:46;;;;;;;2.97;1.70;;;;;;;;;;5083793;28;20129;-61
2023/04/10 13:42:13;;;;;;;3.67;2.53;;;;;;;;;;5081819;28;20124;-60
2023/04/10 13:44:39;;;;;;;3.92;1.77;;;;;;;;;;5081354;28;20043;-60
2023/04/10 13:47:05;;;;;;;3.00;2.05;;;;;;;;;;5079358;28;20613;-60
2023/04/10 13:49:31;;;;;;;2.28;1.45;;;;;;;;;;5083246;28;20044;-60
2023/04/10 13:51:57;;;;;;;4.43;2.00;;;;;;;;;;5081954;28;20040;-60
2023/04/10 13:54:23;;;;;;;6.28;1.95;;;;;;;;;;5082916;28;20082;-60
2023/04/10 13:56:50;;;;;;;3.55;2.22;;;;;;;;;;5080916;28;20121;-60
2023/04/10 13:59:16;;;;;;;4.45;2.42;;;;;;;;;;5082698;28;20058;-60
2023/04/10 14:01:42;;;;;;;4.28;2.25;;;;;;;;;;5081705;28;20040;-61
2023/04/10 14:04:08;;;;;;;4.28;2.05;;;;;;;;;;5082172;28;20152;-60
2023/04/10 14:06:34;;;;;;;3.72;2.08;;;;;;;;;;5083681;28;20471;-60
2023/04/10 14:09:00;;;;;;;3.00;1.67;;;;;;;;;;5082763;28;20060;-61
2023/04/10 14:11:26;;;;;;;4.45;2.40;;;;;;;;;;5083667;28;20040;-60
2023/04/10 14:13:52;;;;;;;4.85;1.88;;;;;;;;;;5083070;28;20041;-59
2023/04/10 14:16:19;;;;;;;3.17;1.80;;;;;;;;;;5081766;28;20045;-60
2023/04/10 14:18:45;;;;;;;5.68;2.22;;;;;;;;;;5082809;28;20044;-60
2023/04/10 14:21:11;;;;;;;6.20;1.80;;;;;;;;;;5083124;28;20040;-60
2023/04/10 14:23:37;;;;;;;3.67;2.28;;;;;;;;;;5065314;28;20044;-60
2023/04/10 14:26:05;;;;;;;4.68;2.30;;;;;;;;;;5081649;28;20072;-61
2023/04/10 14:28:31;;;;;;;3.28;2.15;;;;;;;;;;5080586;28;20037;-60
2023/04/10 14:30:57;;;;;;;5.10;2.63;;;;;;;;;;5080403;28;20036;-61
2023/04/10 14:33:23;;;;;;;6.95;2.25;;;;;;;;;;5079156;28;20036;-60
2023/04/10 14:35:50;;;;;;;4.75;1.73;;;;;;;;;;5080161;28;20891;-61
2023/04/10 14:38:16;;;;;;;4.65;2.13;;;;;;;;;;5080352;28;20093;-60
2023/04/10 14:40:44;;;;;;;3.90;2.17;;;;;;;;;;5080761;28;20040;-60
2023/04/10 14:43:10;;;;;;;2.80;1.88;;;;;;;;;;5080264;28;20499;-60
2023/04/10 14:45:36;;;;;;;4.38;1.75;;;;;;;;;;5077963;28;20087;-60
2023/04/10 14:48:02;;;;;;;4.18;2.63;;;;;;;;;;5077881;28;20090;-60